Time;durP1;ratioP1;P1;durP2;ratioP2;P2;SDS_P1;SDS_P2;PMS_P1;PMS_P2;Temp;Humidity;BMP_temperature;BMP_pressure;BME280_temperature;BME280_humidity;BME280_pressure;Samples;Min_cycle;Max_cycle;Signal;HPM_P1;HPM_P2
2022/12/30 00:01:22;;;;;;;1.83;0.82;;;;;;;;;;10435269;28;20049;-76
2022/12/30 00:06:26;;;;;;;3.05;0.90;;;;;;;;;;10437523;28;20044;-76
2022/12/30 00:11:31;;;;;;;0.82;0.80;;;;;;;;;;10439103;28;20053;-75
2022/12/30 00:38:01;;;;;;;2.88;0.90;;;;;;;;;;10429064;28;20052;-77
2022/12/30 00:43:10;;;;;;;1.58;0.75;;;;;;;;;;10429468;28;20060;-75
2022/12/30 00:58:55;;;;;;;0.25;0.20;;;;;;;;;;10431101;28;20045;-77
2022/12/30 01:03:58;;;;;;;0.28;0.20;;;;;;;;;;10429104;28;20056;-76
2022/12/30 01:09:02;;;;;;;0.30;0.20;;;;;;;;;;10431214;28;20048;-76
2022/12/30 01:14:05;;;;;;;0.60;0.25;;;;;;;;;;10431651;28;20045;-76
2022/12/30 01:19:08;;;;;;;0.15;0.15;;;;;;;;;;10437456;28;20048;-76
2022/12/30 01:24:12;;;;;;;0.55;0.10;;;;;;;;;;10433326;28;20052;-75
2022/12/30 01:29:15;;;;;;;0.65;0.15;;;;;;;;;;10440840;28;20526;-75
2022/12/30 01:34:18;;;;;;;0.20;0.20;;;;;;;;;;10432946;28;20160;-75
2022/12/30 01:39:22;;;;;;;0.30;0.10;;;;;;;;;;10430258;28;20314;-74
2022/12/30 01:44:51;;;;;;;0.52;0.38;;;;;;;;;;10434271;28;20049;-76
2022/12/30 01:49:56;;;;;;;0.45;0.10;;;;;;;;;;10437867;28;20636;-74
2022/12/30 01:55:02;;;;;;;0.38;0.30;;;;;;;;;;10437402;28;20128;-76
2022/12/30 02:00:07;;;;;;;0.20;0.20;;;;;;;;;;10437481;28;20084;-74
2022/12/30 02:05:11;;;;;;;0.25;0.20;;;;;;;;;;10428682;28;20044;-75
2022/12/30 02:10:15;;;;;;;2.43;0.20;;;;;;;;;;10439755;28;20048;-75
2022/12/30 02:15:18;;;;;;;0.32;0.20;;;;;;;;;;10428589;28;20800;-76
2022/12/30 02:20:32;;;;;;;0.38;0.10;;;;;;;;;;10439376;28;20060;-75
2022/12/30 02:25:56;;;;;;;0.40;0.10;;;;;;;;;;10435179;28;20052;-75
2022/12/30 02:31:12;;;;;;;2.80;0.15;;;;;;;;;;10440328;28;20128;-75
2022/12/30 02:36:20;;;;;;;0.30;0.10;;;;;;;;;;10434600;28;20041;-75
2022/12/30 02:46:54;;;;;;;0.00;0.00;;;;;;;;;;10441186;28;20208;-75
2022/12/30 02:52:17;;;;;;;0.20;0.10;;;;;;;;;;10442381;28;20049;-75
2022/12/30 02:57:23;;;;;;;0.10;0.10;;;;;;;;;;10442508;28;20442;-76
2022/12/30 03:08:00;;;;;;;2.92;0.22;;;;;;;;;;10438296;28;20065;-75
2022/12/30 03:13:06;;;;;;;0.03;0.03;;;;;;;;;;10439746;28;20040;-75
2022/12/30 03:18:10;;;;;;;0.32;0.20;;;;;;;;;;10426276;28;20060;-76
2022/12/30 03:28:34;;;;;;;0.15;0.15;;;;;;;;;;10435546;28;20490;-74
2022/12/30 03:33:39;;;;;;;0.00;0.00;;;;;;;;;;10433993;28;20124;-74
2022/12/30 03:38:43;;;;;;;0.00;0.00;;;;;;;;;;10429983;28;20037;-75
2022/12/30 03:43:46;;;;;;;0.10;0.10;;;;;;;;;;10435601;28;20045;-76
2022/12/30 03:48:50;;;;;;;0.80;0.30;;;;;;;;;;10433151;28;20452;-75
2022/12/30 03:53:53;;;;;;;0.10;0.10;;;;;;;;;;10432175;28;20053;-74
2022/12/30 03:58:55;;;;;;;0.30;0.10;;;;;;;;;;10438755;28;20529;-75
2022/12/30 04:03:59;;;;;;;0.00;0.00;;;;;;;;;;10420499;28;20045;-76
2022/12/30 04:09:02;;;;;;;0.10;0.10;;;;;;;;;;10438113;28;20120;-75
2022/12/30 04:14:05;;;;;;;1.17;0.10;;;;;;;;;;10435281;28;20043;-75
2022/12/30 04:19:09;;;;;;;1.02;0.10;;;;;;;;;;10434699;28;20040;-76
2022/12/30 04:24:11;;;;;;;0.00;0.00;;;;;;;;;;10434318;28;20094;-75
2022/12/30 04:29:14;;;;;;;0.60;0.15;;;;;;;;;;10432701;28;20048;-76
2022/12/30 04:34:18;;;;;;;0.35;0.20;;;;;;;;;;10427725;28;20045;-76
2022/12/30 04:39:20;;;;;;;1.88;0.20;;;;;;;;;;10434780;28;20056;-79
2022/12/30 04:44:23;;;;;;;0.03;0.03;;;;;;;;;;10437645;28;20525;-76
2022/12/30 04:49:27;;;;;;;0.08;0.05;;;;;;;;;;10433116;28;20297;-77
2022/12/30 04:54:30;;;;;;;0.15;0.15;;;;;;;;;;10433981;28;20059;-76
2022/12/30 04:59:32;;;;;;;0.00;0.00;;;;;;;;;;10439871;28;20499;-75
2022/12/30 05:04:36;;;;;;;0.40;0.20;;;;;;;;;;10442934;28;20041;-75
2022/12/30 05:09:39;;;;;;;0.38;0.20;;;;;;;;;;10440684;28;20052;-78
2022/12/30 05:14:42;;;;;;;0.35;0.25;;;;;;;;;;10434950;28;20119;-76
2022/12/30 05:19:46;;;;;;;0.10;0.10;;;;;;;;;;10439597;28;20048;-77
2022/12/30 05:30:09;;;;;;;1.10;0.30;;;;;;;;;;10442752;28;20537;-77
2022/12/30 05:35:13;;;;;;;0.00;0.00;;;;;;;;;;10444528;28;20036;-76
2022/12/30 05:40:16;;;;;;;0.90;0.30;;;;;;;;;;10446270;28;20037;-76
2022/12/30 05:45:19;;;;;;;0.47;0.17;;;;;;;;;;10438678;28;20129;-76
2022/12/30 05:50:23;;;;;;;0.50;0.20;;;;;;;;;;10445197;28;20086;-76
2022/12/30 05:55:25;;;;;;;0.17;0.17;;;;;;;;;;10441405;28;20057;-77
2022/12/30 06:00:32;;;;;;;0.40;0.17;;;;;;;;;;10436734;28;20476;-77
2022/12/30 06:05:36;;;;;;;0.55;0.50;;;;;;;;;;10440648;28;20119;-75
2022/12/30 06:10:39;;;;;;;0.20;0.20;;;;;;;;;;10440957;28;20052;-75
2022/12/30 06:15:41;;;;;;;0.35;0.25;;;;;;;;;;10436235;28;20399;-76
2022/12/30 06:20:46;;;;;;;0.38;0.28;;;;;;;;;;10439818;28;20090;-77
2022/12/30 06:25:51;;;;;;;0.30;0.30;;;;;;;;;;10445852;28;20032;-75
2022/12/30 06:30:54;;;;;;;0.40;0.10;;;;;;;;;;10442224;28;20091;-76
2022/12/30 06:35:58;;;;;;;0.98;0.45;;;;;;;;;;10436456;28;20110;-77
2022/12/30 06:41:00;;;;;;;0.93;0.50;;;;;;;;;;10437871;28;20072;-76
2022/12/30 06:46:03;;;;;;;1.02;0.35;;;;;;;;;;10439066;28;20098;-76
2022/12/30 06:51:07;;;;;;;0.00;0.00;;;;;;;;;;10432126;28;20410;-76
2022/12/30 06:56:09;;;;;;;0.52;0.15;;;;;;;;;;10440801;28;20052;-76
2022/12/30 07:01:12;;;;;;;3.88;0.30;;;;;;;;;;10439875;28;20053;-78
2022/12/30 07:06:16;;;;;;;0.43;0.20;;;;;;;;;;10441397;28;20033;-76
2022/12/30 07:11:19;;;;;;;0.52;0.30;;;;;;;;;;10434142;28;20585;-76
2022/12/30 07:16:21;;;;;;;2.92;0.43;;;;;;;;;;10438199;28;20281;-77
2022/12/30 07:21:26;;;;;;;0.25;0.20;;;;;;;;;;10436373;28;20053;-75
2022/12/30 07:26:28;;;;;;;0.82;0.40;;;;;;;;;;10432139;28;20037;-76
2022/12/30 07:31:31;;;;;;;3.45;0.60;;;;;;;;;;10435792;28;20045;-76
2022/12/30 07:36:35;;;;;;;0.10;0.10;;;;;;;;;;10432111;28;20047;-76
2022/12/30 07:41:38;;;;;;;0.15;0.10;;;;;;;;;;10434523;28;20513;-75
2022/12/30 07:46:40;;;;;;;0.75;0.63;;;;;;;;;;10435765;28;20042;-75
2022/12/30 07:51:45;;;;;;;1.17;0.57;;;;;;;;;;10436058;28;20048;-77
2022/12/30 07:56:47;;;;;;;2.20;0.70;;;;;;;;;;10433411;28;20094;-77
2022/12/30 08:01:50;;;;;;;2.15;0.80;;;;;;;;;;10434765;28;20495;-75
2022/12/30 08:06:54;;;;;;;1.15;0.80;;;;;;;;;;10442977;28;20099;-76
2022/12/30 08:11:57;;;;;;;;;;;;;;;;;;10438932;28;20092;-76
2022/12/30 08:16:59;;;;;;;2.00;0.80;;;;;;;;;;10441003;28;19924;-76
2022/12/30 08:22:03;;;;;;;0.57;0.45;;;;;;;;;;10437877;28;20392;-74
2022/12/30 08:27:06;;;;;;;0.20;0.10;;;;;;;;;;10439424;28;20202;-75
2022/12/30 08:32:08;;;;;;;1.27;0.77;;;;;;;;;;10435204;28;20045;-77
2022/12/30 08:37:12;;;;;;;0.70;0.70;;;;;;;;;;10439629;28;20045;-75
2022/12/30 08:42:15;;;;;;;0.77;0.43;;;;;;;;;;10432484;28;20044;-75
2022/12/30 08:47:18;;;;;;;0.85;0.50;;;;;;;;;;10431586;28;20037;-75
2022/12/30 08:52:22;;;;;;;3.95;1.30;;;;;;;;;;10428510;28;20045;-76
2022/12/30 08:57:24;;;;;;;0.80;0.80;;;;;;;;;;10432532;28;20457;-75
2022/12/30 09:02:27;;;;;;;1.90;0.98;;;;;;;;;;10427376;28;20092;-75
2022/12/30 09:07:31;;;;;;;0.87;0.80;;;;;;;;;;10431139;28;20045;-76
2022/12/30 09:12:54;;;;;;;2.38;1.00;;;;;;;;;;10424074;28;20064;-76
2022/12/30 09:17:57;;;;;;;1.90;1.13;;;;;;;;;;10430792;28;20114;-77
2022/12/30 09:23:01;;;;;;;0.90;0.90;;;;;;;;;;10426629;28;20044;-76
2022/12/30 09:28:04;;;;;;;1.02;1.02;;;;;;;;;;10424152;28;20048;-76
2022/12/30 09:33:06;;;;;;;1.90;1.23;;;;;;;;;;10426694;28;20398;-76
2022/12/30 09:38:10;;;;;;;1.30;1.20;;;;;;;;;;10426710;28;20074;-76
2022/12/30 09:43:18;;;;;;;1.20;1.20;;;;;;;;;;10424159;28;20041;-77
2022/12/30 09:48:22;;;;;;;1.60;1.20;;;;;;;;;;10433362;28;20041;-76
2022/12/30 09:53:34;;;;;;;1.23;1.15;;;;;;;;;;10441035;28;20110;-75
2022/12/30 09:58:37;;;;;;;1.20;1.00;;;;;;;;;;10437068;28;20047;-78
2022/12/30 10:03:39;;;;;;;1.40;1.30;;;;;;;;;;10430416;28;20045;-76
2022/12/30 10:09:15;;;;;;;1.48;1.00;;;;;;;;;;10429709;28;20045;-75
2022/12/30 10:14:22;;;;;;;0.75;0.73;;;;;;;;;;10431204;28;20036;-75
2022/12/30 10:19:29;;;;;;;1.00;1.00;;;;;;;;;;10430021;28;20042;-75
2022/12/30 10:24:43;;;;;;;1.48;1.00;;;;;;;;;;10439351;28;20103;-75
2022/12/30 10:29:46;;;;;;;0.90;0.90;;;;;;;;;;10431701;28;20104;-76
2022/12/30 10:34:56;;;;;;;1.33;1.23;;;;;;;;;;10433070;28;20490;-76
2022/12/30 10:40:00;;;;;;;1.58;1.50;;;;;;;;;;10438929;28;20034;-74
2022/12/30 10:45:19;;;;;;;1.33;1.23;;;;;;;;;;10431498;28;20057;-76
2022/12/30 10:50:26;;;;;;;1.63;1.52;;;;;;;;;;10429141;28;20132;-75
2022/12/30 10:55:32;;;;;;;1.70;1.60;;;;;;;;;;10434454;28;20427;-75
2022/12/30 11:00:39;;;;;;;1.60;1.50;;;;;;;;;;10429345;28;20037;-75
2022/12/30 11:05:42;;;;;;;2.17;1.60;;;;;;;;;;10437219;28;20098;-76
2022/12/30 11:10:57;;;;;;;1.63;1.52;;;;;;;;;;10426113;28;20052;-76
2022/12/30 11:16:01;;;;;;;2.13;1.83;;;;;;;;;;10430031;28;20041;-76
2022/12/30 11:21:06;;;;;;;2.05;1.85;;;;;;;;;;10431681;28;20398;-77
2022/12/30 11:26:18;;;;;;;1.50;1.40;;;;;;;;;;10433674;28;20052;-77
2022/12/30 11:31:20;;;;;;;1.73;1.40;;;;;;;;;;10436379;28;20045;-76
2022/12/30 11:36:32;;;;;;;1.42;1.33;;;;;;;;;;10431734;28;20215;-76
2022/12/30 11:41:45;;;;;;;1.77;1.30;;;;;;;;;;10428235;28;20057;-75
2022/12/30 11:46:51;;;;;;;2.22;1.52;;;;;;;;;;10437975;28;20072;-76
2022/12/30 11:51:55;;;;;;;1.58;1.48;;;;;;;;;;10422734;28;20426;-75
2022/12/30 11:57:01;;;;;;;2.63;1.42;;;;;;;;;;10430635;28;20048;-76
2022/12/30 12:02:05;;;;;;;2.03;1.30;;;;;;;;;;10425125;28;20041;-76
2022/12/30 12:07:24;;;;;;;1.35;1.25;;;;;;;;;;10430747;28;20445;-76
2022/12/30 12:12:31;;;;;;;2.85;1.40;;;;;;;;;;10431348;28;20044;-76
2022/12/30 12:17:43;;;;;;;1.35;1.20;;;;;;;;;;10430969;28;20041;-76
2022/12/30 12:22:49;;;;;;;1.53;1.20;;;;;;;;;;10431054;28;20037;-77
2022/12/30 12:27:54;;;;;;;1.33;1.23;;;;;;;;;;10421604;28;20051;-75
2022/12/30 12:33:09;;;;;;;1.10;1.10;;;;;;;;;;10427069;28;20107;-75
2022/12/30 12:38:22;;;;;;;1.75;1.20;;;;;;;;;;10429938;28;20523;-75
2022/12/30 12:43:30;;;;;;;1.30;1.10;;;;;;;;;;10425081;28;20107;-77
2022/12/30 12:48:43;;;;;;;1.05;0.98;;;;;;;;;;10432296;28;20044;-76
2022/12/30 12:53:53;;;;;;;1.30;1.20;;;;;;;;;;10417762;28;20039;-77
2022/12/30 12:59:23;;;;;;;1.27;1.17;;;;;;;;;;10416641;28;20114;-75
2022/12/30 13:04:29;;;;;;;1.35;1.10;;;;;;;;;;10421601;28;20051;-76
2022/12/30 13:09:46;;;;;;;1.10;1.02;;;;;;;;;;10426507;28;20037;-74
2022/12/30 13:15:00;;;;;;;0.93;0.93;;;;;;;;;;10422818;28;20045;-76
2022/12/30 13:20:05;;;;;;;0.68;0.68;;;;;;;;;;10430544;28;20370;-76
2022/12/30 13:25:14;;;;;;;1.20;1.08;;;;;;;;;;10435162;28;20108;-76
2022/12/30 13:30:26;;;;;;;1.10;0.95;;;;;;;;;;10444331;28;20415;-78
2022/12/30 13:35:43;;;;;;;1.67;1.20;;;;;;;;;;10431705;28;20529;-77
2022/12/30 13:40:51;;;;;;;1.58;1.00;;;;;;;;;;10436449;28;20046;-76
2022/12/30 13:45:57;;;;;;;0.65;0.57;;;;;;;;;;10434486;28;20440;-75
2022/12/30 13:51:02;;;;;;;4.95;0.65;;;;;;;;;;10436102;28;20278;-76
2022/12/30 13:56:06;;;;;;;1.88;1.00;;;;;;;;;;10429637;28;20056;-76
2022/12/30 14:01:30;;;;;;;3.55;1.25;;;;;;;;;;10440931;28;20379;-77
2022/12/30 14:06:42;;;;;;;1.33;0.88;;;;;;;;;;10432947;28;20102;-77
2022/12/30 14:12:03;;;;;;;2.53;1.08;;;;;;;;;;10432133;28;20037;-75
2022/12/30 14:17:06;;;;;;;0.20;0.20;;;;;;;;;;10438326;28;20140;-76
2022/12/30 14:22:10;;;;;;;1.50;0.70;;;;;;;;;;10424151;28;20049;-75
2022/12/30 14:27:41;;;;;;;2.53;0.90;;;;;;;;;;10425644;28;20505;-74
2022/12/30 14:32:44;;;;;;;0.60;0.60;;;;;;;;;;10420142;28;20045;-78
2022/12/30 14:37:48;;;;;;;3.60;1.23;;;;;;;;;;10469439;28;20444;-76
2022/12/30 14:42:53;;;;;;;2.33;1.20;;;;;;;;;;10473947;28;20033;-75
2022/12/30 14:47:56;;;;;;;1.63;0.90;;;;;;;;;;10476767;28;20032;-77
2022/12/30 14:53:03;;;;;;;1.20;0.80;;;;;;;;;;10472471;28;20032;-74
2022/12/30 14:58:12;;;;;;;1.58;1.10;;;;;;;;;;10509105;28;20523;-76
2022/12/30 15:03:15;;;;;;;1.67;0.80;;;;;;;;;;10513852;28;20158;-76
2022/12/30 15:08:20;;;;;;;3.20;1.70;;;;;;;;;;10521756;28;20139;-75
2022/12/30 15:13:23;;;;;;;0.55;0.40;;;;;;;;;;10510332;28;20667;-75
2022/12/30 15:18:36;;;;;;;1.63;0.82;;;;;;;;;;10514318;28;20048;-77
2022/12/30 15:23:40;;;;;;;4.10;1.30;;;;;;;;;;10513876;28;20515;-75
2022/12/30 15:28:43;;;;;;;2.80;0.85;;;;;;;;;;10512444;28;20106;-76
2022/12/30 15:33:52;;;;;;;1.75;0.80;;;;;;;;;;10515241;28;20067;-76
2022/12/30 15:38:58;;;;;;;2.08;1.02;;;;;;;;;;10514235;28;20070;-75
2022/12/30 15:44:02;;;;;;;2.80;1.20;;;;;;;;;;10504732;28;20051;-76
2022/12/30 15:49:11;;;;;;;3.08;1.55;;;;;;;;;;10518244;28;20108;-75
2022/12/30 15:54:20;;;;;;;1.88;1.15;;;;;;;;;;10512950;28;20046;-76
2022/12/30 15:59:25;;;;;;;2.10;1.30;;;;;;;;;;10518718;28;20051;-76
2022/12/30 16:04:28;;;;;;;7.80;2.72;;;;;;;;;;10487948;28;20053;-76
2022/12/30 16:09:37;;;;;;;6.07;2.63;;;;;;;;;;10510321;28;20048;-76
2022/12/30 16:14:40;;;;;;;9.48;3.10;;;;;;;;;;10513895;28;20127;-76
2022/12/30 16:19:44;;;;;;;9.53;2.90;;;;;;;;;;10510261;28;20036;-76
2022/12/30 16:24:47;;;;;;;;;;;;;;;;;;10512926;28;20109;-77
2022/12/30 16:29:51;;;;;;;5.40;1.73;;;;;;;;;;10508102;28;19920;-77
2022/12/30 16:34:54;;;;;;;3.30;1.65;;;;;;;;;;10514192;28;20498;-77
2022/12/30 16:40:00;;;;;;;4.20;1.67;;;;;;;;;;10514805;28;20040;-76
2022/12/30 16:45:12;;;;;;;2.65;1.13;;;;;;;;;;10514922;28;20047;-76
2022/12/30 16:50:14;;;;;;;3.10;0.90;;;;;;;;;;10517272;28;20040;-75
2022/12/30 16:55:18;;;;;;;3.42;2.22;;;;;;;;;;10507068;28;20052;-76
2022/12/30 17:00:23;;;;;;;4.10;1.85;;;;;;;;;;10511657;28;20529;-74
2022/12/30 17:05:36;;;;;;;4.25;2.17;;;;;;;;;;10516419;28;20047;-74
2022/12/30 17:10:55;;;;;;;3.85;1.58;;;;;;;;;;10510972;28;20059;-74
2022/12/30 17:16:00;;;;;;;2.55;1.30;;;;;;;;;;10510483;28;20048;-73
2022/12/30 17:21:04;;;;;;;19.95;5.13;;;;;;;;;;10497055;28;20657;-75
2022/12/30 17:26:06;;;;;;;;;;;;;;;;;;10512125;28;20100;-75
2022/12/30 17:31:13;;;;;;;6.07;1.67;;;;;;;;;;10513535;28;19974;-74
2022/12/30 17:36:16;;;;;;;3.28;1.65;;;;;;;;;;10510675;28;20052;-75
2022/12/30 17:41:19;;;;;;;4.90;2.10;;;;;;;;;;10517952;28;20149;-74
2022/12/30 17:46:30;;;;;;;22.15;6.38;;;;;;;;;;10508747;28;20040;-75
2022/12/30 17:51:47;;;;;;;49.15;13.55;;;;;;;;;;10504413;28;20566;-74
2022/12/30 17:56:50;;;;;;;9.70;3.63;;;;;;;;;;10504094;28;20444;-75
2022/12/30 18:01:54;;;;;;;106.70;34.03;;;;;;;;;;10505879;28;20151;-76
2022/12/30 18:06:57;;;;;;;176.13;39.00;;;;;;;;;;10515018;28;20121;-75
2022/12/30 18:11:59;;;;;;;117.30;26.70;;;;;;;;;;10517661;28;20040;-74
2022/12/30 18:17:03;;;;;;;62.63;12.02;;;;;;;;;;10516850;28;20033;-74
2022/12/30 18:22:06;;;;;;;11.43;4.72;;;;;;;;;;10514279;28;20879;-74
2022/12/30 18:27:08;;;;;;;6.50;2.90;;;;;;;;;;10513389;28;20515;-75
2022/12/30 18:32:12;;;;;;;19.67;6.57;;;;;;;;;;10512508;28;20041;-75
2022/12/30 18:37:15;;;;;;;21.35;6.50;;;;;;;;;;10517391;28;20058;-75
2022/12/30 18:42:17;;;;;;;15.38;4.78;;;;;;;;;;10520286;28;20036;-75
2022/12/30 18:47:21;;;;;;;31.42;7.53;;;;;;;;;;10517455;28;20036;-74
2022/12/30 18:52:24;;;;;;;30.42;8.45;;;;;;;;;;10516426;28;20036;-73
2022/12/30 18:57:27;;;;;;;19.30;6.00;;;;;;;;;;10518956;28;20054;-74
2022/12/30 19:02:31;;;;;;;15.00;4.70;;;;;;;;;;10523145;28;20037;-74
2022/12/30 19:07:34;;;;;;;16.27;6.05;;;;;;;;;;10525474;28;20136;-73
2022/12/30 19:12:56;;;;;;;11.23;4.85;;;;;;;;;;10520948;28;20084;-74
2022/12/30 19:18:00;;;;;;;25.85;7.13;;;;;;;;;;10511803;28;20433;-75
2022/12/30 19:23:03;;;;;;;25.80;7.05;;;;;;;;;;10530489;28;20559;-74
2022/12/30 19:28:06;;;;;;;23.40;6.93;;;;;;;;;;10530385;28;20079;-74
2022/12/30 19:33:10;;;;;;;24.88;7.55;;;;;;;;;;10441110;28;20365;-74
2022/12/30 19:38:13;;;;;;;17.13;5.80;;;;;;;;;;10433662;28;20072;-74
2022/12/30 19:43:15;;;;;;;41.75;12.48;;;;;;;;;;10445238;28;20037;-75
2022/12/30 19:48:19;;;;;;;64.45;12.88;;;;;;;;;;10441457;28;20140;-74
2022/12/30 19:53:22;;;;;;;11.43;4.20;;;;;;;;;;10439121;28;20398;-74
2022/12/30 19:58:25;;;;;;;17.42;6.25;;;;;;;;;;10448799;28;20145;-74
2022/12/30 20:03:29;;;;;;;11.05;3.67;;;;;;;;;;10438829;28;20068;-73
2022/12/30 20:08:31;;;;;;;9.50;4.05;;;;;;;;;;10446027;28;20049;-74
2022/12/30 20:13:34;;;;;;;5.72;2.50;;;;;;;;;;10442195;28;20124;-73
2022/12/30 20:18:38;;;;;;;9.52;3.88;;;;;;;;;;10432686;28;20529;-74
2022/12/30 20:23:40;;;;;;;;;;;;;;;;;;10429888;28;20106;-75
2022/12/30 20:28:43;;;;;;;3.53;2.15;;;;;;;;;;10450565;28;20363;-74
2022/12/30 20:33:47;;;;;;;4.40;2.03;;;;;;;;;;10523209;28;20513;-74
2022/12/30 20:38:49;;;;;;;5.78;2.67;;;;;;;;;;10526730;28;20044;-75
2022/12/30 20:43:52;;;;;;;7.40;2.70;;;;;;;;;;10524966;28;20432;-75
2022/12/30 20:48:57;;;;;;;3.45;1.83;;;;;;;;;;10524653;28;20507;-74
2022/12/30 20:54:01;;;;;;;6.32;2.67;;;;;;;;;;10523993;28;20024;-75
2022/12/30 20:59:04;;;;;;;10.13;3.40;;;;;;;;;;10522433;28;20101;-74
2022/12/30 21:04:10;;;;;;;4.63;2.43;;;;;;;;;;10520242;28;20302;-74
2022/12/30 21:09:14;;;;;;;8.07;3.80;;;;;;;;;;10515768;28;20067;-74
2022/12/30 21:14:17;;;;;;;8.63;2.97;;;;;;;;;;10526380;28;20069;-75
2022/12/30 21:19:21;;;;;;;5.47;2.67;;;;;;;;;;10524065;28;20689;-74
2022/12/30 21:24:27;;;;;;;10.27;4.22;;;;;;;;;;10524335;28;20354;-74
2022/12/30 21:29:29;;;;;;;3.30;1.67;;;;;;;;;;10525297;28;20393;-75
2022/12/30 21:34:33;;;;;;;22.27;9.35;;;;;;;;;;10512283;28;20147;-74
2022/12/30 22:06:24;;;;;;;3.83;1.73;;;;;;;;;;10534171;28;20498;-75
2022/12/30 22:11:27;;;;;;;2.03;1.20;;;;;;;;;;10530257;28;20040;-74
2022/12/30 22:16:30;;;;;;;4.10;1.70;;;;;;;;;;10529327;28;20032;-74
2022/12/30 22:21:35;;;;;;;2.72;1.10;;;;;;;;;;10516674;28;20028;-73
2022/12/30 22:26:37;;;;;;;1.23;0.60;;;;;;;;;;10533537;28;20055;-74
2022/12/30 22:31:40;;;;;;;0.40;0.40;;;;;;;;;;10530971;28;20047;-75
2022/12/30 22:36:44;;;;;;;1.15;0.70;;;;;;;;;;10523708;28;20043;-74
2022/12/30 22:41:56;;;;;;;0.70;0.45;;;;;;;;;;10523328;28;20085;-74
2022/12/30 22:46:58;;;;;;;2.20;0.70;;;;;;;;;;10502100;28;20154;-74
2022/12/30 22:52:02;;;;;;;1.67;0.57;;;;;;;;;;10516704;28;20044;-76
2022/12/30 22:57:05;;;;;;;1.25;0.45;;;;;;;;;;10516636;28;20066;-76
2022/12/30 23:02:08;;;;;;;0.40;0.40;;;;;;;;;;10496225;28;20489;-76
2022/12/30 23:07:12;;;;;;;0.68;0.20;;;;;;;;;;10511203;28;20047;-73
2022/12/30 23:16:05;;;;;;;0.63;0.40;;;;;;;;;;10515899;28;20495;-75
2022/12/30 23:17:38;;;;;;;0.30;0.30;;;;;;;;;;10510532;28;20050;-74
2022/12/30 23:28:10;;;;;;;0.22;0.20;;;;;;;;;;10507959;28;20051;-73
2022/12/30 23:33:12;;;;;;;0.35;0.28;;;;;;;;;;10470887;28;20036;-74
2022/12/30 23:38:16;;;;;;;0.35;0.35;;;;;;;;;;10476438;28;20033;-74
2022/12/30 23:43:19;;;;;;;;;;;;;;;;;;10469827;28;20261;-74
2022/12/30 23:48:22;;;;;;;0.20;0.20;;;;;;;;;;10479599;28;19936;-75
2022/12/30 23:53:32;;;;;;;0.10;0.10;;;;;;;;;;10469692;28;20505;-74
2022/12/30 23:58:36;;;;;;;1.02;0.55;;;;;;;;;;10469459;28;20045;-75
